Time;durP1;ratioP1;P1;durP2;ratioP2;P2;SDS_P1;SDS_P2;PMS_P1;PMS_P2;Temp;Humidity;BMP_temperature;BMP_pressure;BME280_temperature;BME280_humidity;BME280_pressure;Samples;Min_cycle;Max_cycle;Signal;HPM_P1;HPM_P2
2022/08/08 00:04:25;;;;;;;2.00;1.45;;;;;;;21.91;54.23;96989.38;10328062;28;20076;-25
2022/08/08 00:10:03;;;;;;;5.97;1.65;;;;;;;21.88;54.47;96984.34;10329445;28;20067;-26
2022/08/08 00:15:26;;;;;;;1.92;1.33;;;;;;;21.81;54.56;96989.50;10327343;28;20233;-26
2022/08/08 00:20:45;;;;;;;6.13;1.88;;;;;;;21.76;54.27;96986.16;10329599;28;20401;-26
2022/08/08 00:25:50;;;;;;;1.40;1.30;;;;;;;21.68;54.87;96988.78;10326221;28;20031;-28
2022/08/08 00:30:55;;;;;;;2.03;1.70;;;;;;;21.72;54.51;96990.41;10328588;28;20050;-26
2022/08/08 00:36:07;;;;;;;1.80;1.55;;;;;;;21.71;54.79;96988.72;10323411;28;20165;-26
2022/08/08 00:41:29;;;;;;;1.50;1.40;;;;;;;21.79;54.99;96991.22;10324262;28;20073;-26
2022/08/08 00:47:12;;;;;;;1.60;1.50;;;;;;;21.84;54.33;96989.47;10326936;28;20034;-26
2022/08/08 00:52:38;;;;;;;3.55;1.88;;;;;;;21.93;53.90;96994.50;10324943;28;20412;-26
2022/08/08 00:58:16;;;;;;;1.80;1.63;;;;;;;21.90;53.92;96990.25;10323134;28;20164;-26
2022/08/08 01:03:39;;;;;;;1.40;1.30;;;;;;;21.86;54.14;96983.50;10324880;28;20281;-26
2022/08/08 01:08:49;;;;;;;2.15;1.55;;;;;;;21.84;54.34;96972.50;10324329;28;20037;-26
2022/08/08 01:14:16;;;;;;;1.73;1.60;;;;;;;21.82;54.35;96981.81;10325406;28;20587;-26
2022/08/08 01:19:31;;;;;;;2.60;1.50;;;;;;;21.79;54.30;96992.06;10326060;28;20061;-26
2022/08/08 01:24:57;;;;;;;1.48;1.30;;;;;;;21.79;55.22;96997.16;10324670;28;20129;-26
2022/08/08 01:30:24;;;;;;;1.60;1.50;;;;;;;21.79;55.29;96998.84;10323306;28;20026;-26
2022/08/08 01:35:37;;;;;;;2.08;1.90;;;;;;;21.81;54.38;96999.72;10324424;28;20519;-25
2022/08/08 01:41:18;;;;;;;2.15;1.65;;;;;;;21.87;53.98;96992.84;10323919;28;20074;-26
2022/08/08 01:46:44;;;;;;;1.27;1.17;;;;;;;21.88;54.40;96997.09;10322801;28;20502;-25
2022/08/08 01:52:11;;;;;;;1.55;1.42;;;;;;;21.84;54.12;96995.44;10316741;28;20034;-25
2022/08/08 01:57:23;;;;;;;;;;;;;;;21.79;54.70;96986.09;10326790;28;20030;-25
2022/08/08 02:02:53;;;;;;;1.60;1.50;;;;;;;21.75;54.48;96985.31;10325743;28;20331;-25
2022/08/08 02:08:04;;;;;;;2.95;1.80;;;;;;;21.77;53.81;96982.72;10320056;28;20049;-25
2022/08/08 02:13:29;;;;;;;1.60;1.50;;;;;;;21.72;54.07;96980.22;10328709;28;20038;-25
2022/08/08 02:18:48;;;;;;;3.05;1.52;;;;;;;21.75;54.34;96975.13;10334172;28;20094;-25
2022/08/08 02:24:01;;;;;;;1.90;1.60;;;;;;;21.74;54.19;96981.06;10327689;28;20049;-26
2022/08/08 02:29:32;;;;;;;2.20;1.52;;;;;;;21.66;53.65;96949.69;10334076;28;20030;-25
2022/08/08 02:34:59;;;;;;;1.83;1.40;;;;;;;21.78;53.82;96959.78;10329218;28;20035;-24
2022/08/08 02:40:22;;;;;;;1.63;1.52;;;;;;;21.77;53.74;96962.34;10328873;28;20039;-26
2022/08/08 02:45:57;;;;;;;1.80;1.40;;;;;;;21.73;53.43;96971.72;10325751;28;20108;-26
2022/08/08 02:51:23;;;;;;;1.33;1.23;;;;;;;21.72;53.54;96969.22;10327096;28;20528;-26
2022/08/08 02:56:56;;;;;;;1.80;1.70;;;;;;;21.71;53.41;96977.72;10329986;28;20037;-26
2022/08/08 03:02:16;;;;;;;1.70;1.60;;;;;;;21.70;53.83;96981.09;10326535;28;20034;-26
2022/08/08 03:07:23;;;;;;;2.28;1.67;;;;;;;21.67;53.72;96976.88;10328890;28;20045;-26
2022/08/08 03:13:03;;;;;;;2.30;1.20;;;;;;;21.64;53.60;96976.03;10331177;28;20045;-25
2022/08/08 03:18:10;;;;;;;1.50;1.40;;;;;;;21.72;52.79;96985.31;10328052;28;20072;-26
2022/08/08 03:23:12;;;;;;;2.00;1.67;;;;;;;21.69;53.09;96980.25;10323754;28;20030;-26
2022/08/08 03:28:31;;;;;;;2.03;1.60;;;;;;;21.66;53.43;96990.47;10329988;28;20045;-26
2022/08/08 03:33:33;;;;;;;2.28;1.70;;;;;;;21.64;53.46;96989.59;10333226;28;20045;-26
2022/08/08 03:38:36;;;;;;;1.48;1.38;;;;;;;21.62;53.21;96981.13;10326637;28;20030;-26
2022/08/08 03:43:36;;;;;;;1.67;1.50;;;;;;;21.57;53.42;96995.59;10329421;28;20100;-27
2022/08/08 03:48:37;;;;;;;2.77;2.00;;;;;;;21.57;53.58;96994.78;10324371;28;20105;-26
2022/08/08 03:53:37;;;;;;;1.73;1.63;;;;;;;21.29;53.68;96983.94;10324963;28;20337;-26
2022/08/08 03:58:38;;;;;;;2.10;1.38;;;;;;;21.38;52.85;96994.06;10325468;28;20301;-25
2022/08/08 04:03:58;;;;;;;2.47;1.50;;;;;;;21.25;53.09;97000.09;10318229;28;20046;-25
2022/08/08 04:09:01;;;;;;;3.78;1.27;;;;;;;21.38;52.33;97014.44;10322480;28;20536;-26
2022/08/08 04:14:05;;;;;;;2.07;1.70;;;;;;;21.26;53.01;97009.44;10326522;28;20524;-26
2022/08/08 04:19:08;;;;;;;2.15;1.50;;;;;;;21.16;52.34;97004.41;10321060;28;20398;-26
2022/08/08 04:24:10;;;;;;;3.47;1.33;;;;;;;21.22;52.94;97009.47;10320789;28;20027;-25
2022/08/08 04:29:10;;;;;;;2.25;1.75;;;;;;;21.31;53.62;97012.78;10319911;28;20030;-25
2022/08/08 04:34:12;;;;;;;2.75;2.03;;;;;;;21.69;50.76;97015.94;10325108;28;20026;-25
2022/08/08 04:39:12;;;;;;;3.80;1.70;;;;;;;21.73;50.44;97022.69;10325479;28;20440;-26
2022/08/08 04:44:13;;;;;;;1.97;1.30;;;;;;;21.78;49.73;97015.88;10324634;28;20085;-25
2022/08/08 04:49:14;;;;;;;1.50;1.23;;;;;;;21.79;49.41;97022.66;10326905;28;20129;-26
2022/08/08 04:54:14;;;;;;;4.77;1.40;;;;;;;21.81;49.33;97027.75;10325617;28;20133;-26
2022/08/08 04:59:15;;;;;;;1.65;1.23;;;;;;;21.85;49.00;97026.84;10326641;28;20321;-26
2022/08/08 05:04:15;;;;;;;1.20;1.05;;;;;;;21.85;49.09;97037.91;10325877;28;20026;-25
2022/08/08 05:09:17;;;;;;;1.42;1.30;;;;;;;21.80;49.18;97043.91;10339793;28;20038;-26
2022/08/08 05:14:18;;;;;;;2.03;1.70;;;;;;;21.73;50.23;97037.16;10326198;28;20030;-25
2022/08/08 05:19:22;;;;;;;2.10;1.45;;;;;;;21.73;50.29;97045.63;10324819;28;20117;-25
2022/08/08 05:24:22;;;;;;;2.58;1.73;;;;;;;21.69;51.31;97041.44;10321695;28;20034;-26
2022/08/08 05:29:23;;;;;;;4.47;1.90;;;;;;;21.76;49.31;97043.09;10324001;28;20034;-26
2022/08/08 05:34:48;;;;;;;2.78;1.48;;;;;;;21.81;49.08;97046.41;10324750;28;20121;-26
2022/08/08 05:39:51;;;;;;;1.67;1.17;;;;;;;21.72;49.96;97050.75;10323785;28;20046;-26
2022/08/08 05:44:53;;;;;;;2.45;1.30;;;;;;;21.71;50.11;97049.91;10322472;28;20027;-25
2022/08/08 05:49:55;;;;;;;3.65;1.38;;;;;;;21.75;49.81;97051.59;10325030;28;20038;-25
2022/08/08 05:54:56;;;;;;;2.10;1.38;;;;;;;21.74;51.05;97051.59;10320349;28;20018;-26
2022/08/08 05:59:59;;;;;;;1.48;1.25;;;;;;;21.69;51.71;97051.63;10322343;28;20408;-25
2022/08/08 06:05:16;;;;;;;2.70;1.30;;;;;;;21.68;51.35;97051.63;10325771;28;20039;-25
2022/08/08 06:10:18;;;;;;;2.55;1.50;;;;;;;21.78;50.49;97050.69;10323519;28;20092;-26
2022/08/08 06:15:19;;;;;;;1.52;1.42;;;;;;;21.84;50.52;97064.25;10322222;28;20038;-26
2022/08/08 06:20:19;;;;;;;4.45;1.90;;;;;;;21.79;51.00;97063.44;10334417;28;20034;-25
2022/08/08 06:25:20;;;;;;;2.80;1.45;;;;;;;21.81;51.17;97065.97;10323375;28;20443;-25
2022/08/08 06:30:21;;;;;;;4.10;1.45;;;;;;;21.74;51.57;97074.53;10322810;28;20203;-25
2022/08/08 06:35:29;;;;;;;4.30;1.30;;;;;;;21.82;51.41;97067.66;10323626;28;20080;-27
2022/08/08 06:40:33;;;;;;;2.17;1.30;;;;;;;21.92;51.37;97066.72;10321044;28;20026;-26
2022/08/08 06:45:37;;;;;;;2.78;1.38;;;;;;;21.83;53.03;97075.31;10319248;28;20134;-26
2022/08/08 06:50:40;;;;;;;2.20;1.38;;;;;;;21.99;51.24;97076.84;10325229;28;20076;-26
2022/08/08 06:55:45;;;;;;;3.75;1.98;;;;;;;21.85;53.21;97070.19;10322608;28;20386;-27
2022/08/08 07:00:48;;;;;;;4.22;1.60;;;;;;;21.86;53.70;97064.22;10323868;28;20049;-26
2022/08/08 07:05:50;;;;;;;4.10;1.80;;;;;;;21.82;53.77;97070.22;10321275;28;20043;-27
2022/08/08 07:10:57;;;;;;;4.28;1.60;;;;;;;21.78;54.79;97065.97;10326261;28;20497;-26
2022/08/08 07:16:17;;;;;;;4.40;1.65;;;;;;;21.78;54.91;97077.03;10327512;28;20562;-26
2022/08/08 07:21:22;;;;;;;3.40;2.00;;;;;;;21.76;54.44;97078.75;10324769;28;20077;-26
2022/08/08 07:26:32;;;;;;;1.75;1.40;;;;;;;21.89;52.22;97079.53;10326229;28;20034;-27
2022/08/08 07:31:35;;;;;;;1.80;1.70;;;;;;;21.99;51.68;97083.69;10328146;28;20034;-26
2022/08/08 07:36:37;;;;;;;2.25;1.23;;;;;;;21.95;53.52;97080.31;10319585;28;20027;-26
2022/08/08 07:41:40;;;;;;;3.08;1.20;;;;;;;21.86;53.22;97085.47;10328090;28;20045;-26
2022/08/08 07:46:41;;;;;;;2.10;1.52;;;;;;;21.82;53.80;97094.00;10320239;28;20034;-26
2022/08/08 07:51:48;;;;;;;3.03;1.67;;;;;;;21.79;54.98;97083.81;10324697;28;20030;-26
2022/08/08 07:57:08;;;;;;;3.50;1.73;;;;;;;21.76;55.31;97078.75;10326956;28;20042;-27
2022/08/08 08:02:13;;;;;;;3.90;1.75;;;;;;;21.76;55.39;97080.44;10324050;28;20034;-27
2022/08/08 08:07:15;;;;;;;3.08;1.25;;;;;;;21.77;55.00;97080.44;10325804;28;20093;-26
2022/08/08 08:12:19;;;;;;;2.65;1.80;;;;;;;21.77;54.93;97079.59;10326852;28;20038;-27
2022/08/08 08:17:22;;;;;;;1.80;1.40;;;;;;;21.91;49.87;97076.06;10323440;28;20513;-27
2022/08/08 08:22:24;;;;;;;1.95;1.40;;;;;;;22.03;49.82;97077.69;10323471;28;20062;-26
2022/08/08 08:27:26;;;;;;;2.22;1.23;;;;;;;21.96;51.80;97076.91;10326115;28;20117;-27
2022/08/08 08:32:30;;;;;;;2.67;1.70;;;;;;;21.84;52.26;97073.59;10324800;28;20061;-26
2022/08/08 08:37:31;;;;;;;3.50;1.50;;;;;;;21.87;53.94;97078.66;10315790;28;20027;-27
2022/08/08 08:42:33;;;;;;;1.70;1.23;;;;;;;21.83;53.24;97085.50;10326366;28;20026;-27
2022/08/08 08:47:34;;;;;;;1.48;1.30;;;;;;;21.84;52.81;97091.44;10319504;28;20629;-26
2022/08/08 08:52:41;;;;;;;2.80;1.23;;;;;;;21.83;53.68;97080.41;10320816;28;20046;-26
2022/08/08 08:57:43;;;;;;;3.03;1.33;;;;;;;21.83;54.42;97080.41;10324497;28;20042;-27
2022/08/08 09:02:45;;;;;;;3.80;1.17;;;;;;;21.80;54.39;97077.88;10325139;28;20052;-27
2022/08/08 09:07:50;;;;;;;4.15;1.45;;;;;;;21.94;49.76;97078.63;10323325;28;20045;-26
2022/08/08 09:12:53;;;;;;;3.60;1.40;;;;;;;22.06;49.67;97086.16;10324469;28;20030;-27
2022/08/08 09:17:54;;;;;;;1.80;1.30;;;;;;;22.00;52.08;97083.69;10323400;28;20064;-26
2022/08/08 09:22:56;;;;;;;5.97;1.10;;;;;;;21.92;52.00;97085.44;10321670;28;20042;-27
2022/08/08 09:27:58;;;;;;;6.10;1.20;;;;;;;21.88;52.33;97082.94;10324373;28;20439;-27
2022/08/08 09:33:03;;;;;;;5.95;1.63;;;;;;;21.87;52.48;97083.75;10322957;28;20026;-27
2022/08/08 09:38:04;;;;;;;2.20;1.33;;;;;;;21.82;53.28;97083.78;10316331;28;20030;-26
2022/08/08 09:43:29;;;;;;;2.37;1.10;;;;;;;21.83;54.84;97084.66;10323370;28;20049;-27
2022/08/08 09:48:32;;;;;;;4.47;1.30;;;;;;;21.81;53.74;97078.72;10317918;28;20034;-27
2022/08/08 09:53:39;;;;;;;3.58;1.75;;;;;;;21.82;54.73;97086.34;10320028;28;20153;-27
2022/08/08 09:58:52;;;;;;;5.00;1.50;;;;;;;21.98;50.04;97080.28;10318002;28;20432;-27
2022/08/08 10:03:56;;;;;;;4.00;1.50;;;;;;;22.07;50.50;97079.38;10322386;28;20062;-27
2022/08/08 10:08:56;;;;;;;5.60;1.75;;;;;;;22.00;52.48;97067.53;10322709;28;20034;-26
2022/08/08 10:14:01;;;;;;;4.25;2.03;;;;;;;21.96;51.58;97079.44;10323200;28;20496;-26
2022/08/08 10:19:05;;;;;;;4.53;2.83;;;;;;;21.92;52.99;97079.47;10313907;28;20125;-27
2022/08/08 10:24:08;;;;;;;6.63;2.83;;;;;;;21.89;52.74;97070.16;10318977;28;20042;-26
2022/08/08 10:29:10;;;;;;;5.40;2.63;;;;;;;21.84;54.36;97071.03;10322858;28;20130;-26
2022/08/08 10:34:14;;;;;;;4.47;2.40;;;;;;;21.81;53.50;97068.53;10325743;28;20527;-26
2022/08/08 10:39:26;;;;;;;7.70;3.10;;;;;;;21.84;55.02;97068.50;10323622;28;20041;-27
2022/08/08 10:44:39;;;;;;;5.55;2.80;;;;;;;21.85;54.56;97062.53;10331459;28;20053;-26
2022/08/08 10:49:41;;;;;;;3.53;2.30;;;;;;;22.01;51.72;97042.03;10321220;28;20039;-27
2022/08/08 10:54:52;;;;;;;3.80;2.03;;;;;;;22.10;51.92;97053.81;10322765;28;20481;-26
2022/08/08 11:00:03;;;;;;;2.85;1.80;;;;;;;22.02;53.62;97053.91;10327309;28;20180;-27
2022/08/08 11:05:08;;;;;;;4.78;2.22;;;;;;;21.98;52.36;97064.16;10330190;28;20045;-27
2022/08/08 11:10:11;;;;;;;7.90;1.90;;;;;;;21.91;53.27;97047.19;10330084;28;20049;-26
2022/08/08 11:15:14;;;;;;;3.25;2.42;;;;;;;21.87;53.51;97048.94;10330708;28;20461;-26
2022/08/08 11:20:17;;;;;;;2.17;1.70;;;;;;;21.92;52.22;97043.78;10327979;28;20038;-27
2022/08/08 11:25:23;;;;;;;3.00;1.63;;;;;;;21.88;53.04;97035.31;10328731;28;20046;-27
2022/08/08 11:30:26;;;;;;;1.93;1.83;;;;;;;21.90;52.30;97032.78;10327304;28;20046;-27
2022/08/08 11:35:27;;;;;;;2.40;1.40;;;;;;;21.87;52.61;97031.09;10329600;28;20037;-26
2022/08/08 11:40:28;;;;;;;2.28;1.55;;;;;;;22.04;51.49;97029.22;10322646;28;20408;-27
2022/08/08 11:45:29;;;;;;;1.50;1.40;;;;;;;22.11;51.12;97023.22;10327573;28;20022;-27
2022/08/08 11:50:31;;;;;;;2.78;1.45;;;;;;;22.04;52.58;97018.16;10329853;28;20061;-27
2022/08/08 11:55:34;;;;;;;1.65;1.30;;;;;;;21.95;51.69;97008.91;10323014;28;20117;-26
2022/08/08 12:00:45;;;;;;;1.17;1.05;;;;;;;21.88;53.64;97002.19;10322634;28;20042;-26
2022/08/08 12:05:46;;;;;;;1.52;1.33;;;;;;;21.90;53.33;97020.84;10327116;28;20077;-26
2022/08/08 12:10:49;;;;;;;1.80;1.43;;;;;;;21.89;54.40;97016.63;10328114;28;20178;-27
2022/08/08 12:15:49;;;;;;;1.75;1.30;;;;;;;21.84;54.30;97003.06;10320995;28;20599;-27
2022/08/08 12:20:52;;;;;;;1.98;1.50;;;;;;;21.85;53.86;96999.66;10326940;28;20045;-26
2022/08/08 12:25:52;;;;;;;1.40;1.30;;;;;;;21.91;51.25;97004.69;10326934;28;20045;-27
2022/08/08 12:31:07;;;;;;;1.50;1.40;;;;;;;22.03;49.73;96993.53;10326799;28;20041;-27
2022/08/08 12:36:11;;;;;;;1.58;1.33;;;;;;;22.13;51.01;96998.53;10323873;28;20050;-27
2022/08/08 12:41:12;;;;;;;1.50;1.30;;;;;;;22.06;51.82;97002.00;10325493;28;20034;-27
2022/08/08 12:46:21;;;;;;;2.03;1.30;;;;;;;21.95;52.72;96998.72;10325999;28;20034;-26
2022/08/08 12:51:21;;;;;;;1.92;1.38;;;;;;;21.94;53.18;96997.03;10322006;28;20069;-27
2022/08/08 12:56:34;;;;;;;2.27;1.10;;;;;;;21.90;53.32;96997.91;10325804;28;20495;-26
2022/08/08 13:01:36;;;;;;;2.53;1.20;;;;;;;21.87;53.29;96995.41;10324884;28;20030;-27
2022/08/08 13:06:36;;;;;;;1.73;1.50;;;;;;;21.91;53.87;96986.00;10324595;28;20546;-27
2022/08/08 13:11:37;;;;;;;1.38;1.27;;;;;;;21.90;53.43;96990.25;10325924;28;20447;-26
2022/08/08 13:16:38;;;;;;;1.45;1.08;;;;;;;21.88;53.68;96984.34;10323641;28;20034;-27
2022/08/08 13:21:44;;;;;;;1.60;1.20;;;;;;;22.06;49.47;96983.31;10323947;28;20061;-26
2022/08/08 13:26:44;;;;;;;1.33;1.20;;;;;;;22.14;50.81;96984.09;10324824;28;20481;-26
2022/08/08 13:31:49;;;;;;;3.13;1.30;;;;;;;22.05;52.63;96984.19;10322614;28;20049;-27
2022/08/08 13:36:50;;;;;;;3.20;1.15;;;;;;;21.93;54.02;96980.06;10316111;28;20520;-28
2022/08/08 13:41:53;;;;;;;1.20;1.08;;;;;;;21.91;52.09;96958.81;10325035;28;20050;-26
2022/08/08 13:47:03;;;;;;;2.50;1.38;;;;;;;21.90;52.96;96969.84;10318655;28;20042;-26
2022/08/08 13:52:05;;;;;;;2.95;1.08;;;;;;;21.88;54.57;96970.75;10320608;28;20493;-27
2022/08/08 13:57:08;;;;;;;1.27;1.10;;;;;;;21.80;55.45;96962.34;10324830;28;20109;-27
2022/08/08 14:02:27;;;;;;;1.17;1.08;;;;;;;21.88;54.04;96966.50;10323762;28;20150;-26
2022/08/08 14:07:31;;;;;;;1.15;1.05;;;;;;;21.89;51.53;96964.81;10323083;28;20046;-27
2022/08/08 14:12:34;;;;;;;1.23;1.13;;;;;;;22.08;49.88;96954.38;10337961;28;20117;-26
2022/08/08 14:17:35;;;;;;;1.38;1.17;;;;;;;22.10;51.32;96945.03;10335213;28;20089;-26
2022/08/08 14:22:41;;;;;;;1.95;1.40;;;;;;;22.04;53.41;96945.09;10335408;28;20424;-27
2022/08/08 14:27:41;;;;;;;7.32;1.67;;;;;;;21.96;53.30;96946.88;10336719;28;20066;-27
2022/08/08 14:32:47;;;;;;;1.40;1.23;;;;;;;21.92;54.39;96952.88;10335627;28;20112;-27
2022/08/08 14:37:49;;;;;;;1.60;1.27;;;;;;;21.87;55.24;96944.41;10329950;28;20077;-27
2022/08/08 14:42:55;;;;;;;1.63;1.30;;;;;;;21.96;50.25;96939.22;10337077;28;20453;-27
2022/08/08 14:48:01;;;;;;;1.27;1.17;;;;;;;22.05;49.11;96956.97;10325852;28;20038;-26
2022/08/08 14:53:12;;;;;;;1.70;1.20;;;;;;;22.07;48.85;96951.88;10331039;28;20065;-26
2022/08/08 14:58:12;;;;;;;1.38;1.05;;;;;;;22.10;48.48;96952.69;10339389;28;20084;-29
2022/08/08 15:03:13;;;;;;;1.03;0.93;;;;;;;22.19;48.27;96947.47;10337667;28;20100;-30
2022/08/08 15:08:15;;;;;;;2.07;1.17;;;;;;;22.23;49.78;96938.91;10336709;28;20045;-30
2022/08/08 15:13:16;;;;;;;1.25;1.15;;;;;;;22.16;50.26;96937.28;10338364;28;20700;-29
2022/08/08 15:18:16;;;;;;;0.85;0.85;;;;;;;22.13;48.74;96932.22;10337850;28;20038;-31
2022/08/08 15:23:17;;;;;;;1.30;1.20;;;;;;;22.11;48.31;96933.97;10330094;28;20038;-29
2022/08/08 15:28:17;;;;;;;1.63;0.97;;;;;;;22.13;48.37;96932.22;10332124;28;20285;-29
2022/08/08 15:33:18;;;;;;;1.27;1.13;;;;;;;22.12;48.11;96939.88;10326162;28;20081;-29
2022/08/08 15:38:19;;;;;;;1.77;1.10;;;;;;;22.12;48.40;96935.66;10322853;28;20293;-29
2022/08/08 15:43:19;;;;;;;1.98;1.20;;;;;;;22.11;48.04;96939.06;10329690;28;20489;-30
2022/08/08 15:48:19;;;;;;;1.60;1.20;;;;;;;22.12;48.08;96935.66;10327878;28;20100;-30
2022/08/08 15:53:22;;;;;;;1.00;0.90;;;;;;;22.20;49.83;96933.84;10323878;28;20037;-29
2022/08/08 15:58:23;;;;;;;0.88;0.85;;;;;;;22.26;49.30;96931.25;10329368;28;20133;-30
2022/08/08 16:03:23;;;;;;;1.95;1.15;;;;;;;22.20;50.29;96931.31;10325469;28;20408;-29
2022/08/08 16:08:24;;;;;;;1.27;1.10;;;;;;;22.16;48.31;96932.19;10318609;28;20046;-29
2022/08/08 16:13:24;;;;;;;1.85;1.00;;;;;;;22.15;47.80;96933.06;10325711;28;20066;-30
2022/08/08 16:18:28;;;;;;;1.57;1.40;;;;;;;22.16;48.23;96934.75;10325769;28;20713;-29
2022/08/08 16:23:28;;;;;;;1.42;0.90;;;;;;;22.13;48.45;96927.13;10320626;28;20042;-29
2022/08/08 16:28:28;;;;;;;1.93;1.30;;;;;;;22.12;48.08;96928.00;10327402;28;20038;-30
2022/08/08 16:33:29;;;;;;;1.63;1.13;;;;;;;22.13;47.70;96924.59;10320506;28;20038;-30
2022/08/08 16:38:29;;;;;;;1.38;1.00;;;;;;;22.12;48.33;96929.69;10320854;28;20034;-29
2022/08/08 16:43:30;;;;;;;1.27;1.10;;;;;;;22.20;49.35;96940.66;10326709;28;20042;-29
2022/08/08 16:48:30;;;;;;;1.40;1.13;;;;;;;22.25;48.91;96932.13;10325625;28;20038;-29
2022/08/08 16:53:31;;;;;;;1.42;0.90;;;;;;;22.17;51.66;96928.81;10323133;28;20400;-30
2022/08/08 16:58:34;;;;;;;1.83;1.33;;;;;;;22.06;52.10;96930.59;10326676;28;20026;-30
2022/08/08 17:03:35;;;;;;;2.65;1.00;;;;;;;22.00;52.85;96928.13;10319008;28;21000;-29
2022/08/08 17:08:37;;;;;;;0.77;0.77;;;;;;;22.00;52.77;96935.78;10324625;28;20189;-29
2022/08/08 17:13:37;;;;;;;1.35;1.00;;;;;;;21.99;52.68;96939.16;10325995;28;20139;-29
2022/08/08 17:18:37;;;;;;;3.13;0.80;;;;;;;22.02;52.24;96939.16;10324759;28;20113;-30
2022/08/08 17:23:38;;;;;;;6.77;1.27;;;;;;;21.91;53.78;96946.06;10321317;28;20813;-30
2022/08/08 17:28:38;;;;;;;1.85;1.30;;;;;;;21.90;51.59;96948.63;10324873;28;20065;-29
2022/08/08 17:33:40;;;;;;;2.27;0.90;;;;;;;22.04;50.41;96939.97;10323542;28;20049;-29
2022/08/08 17:38:40;;;;;;;3.88;1.40;;;;;;;22.20;48.57;96951.72;10320538;28;20046;-29
2022/08/08 17:43:41;;;;;;;1.08;0.95;;;;;;;22.18;51.96;96955.13;10319685;28;20092;-29
2022/08/08 17:48:41;;;;;;;1.43;1.00;;;;;;;22.09;51.87;96956.09;10323128;28;20095;-29
2022/08/08 17:53:41;;;;;;;0.90;0.80;;;;;;;22.04;51.61;96951.88;10319838;28;20042;-29
2022/08/08 17:58:42;;;;;;;1.13;1.03;;;;;;;22.01;51.85;96968.06;10324397;28;20396;-29
2022/08/08 18:03:43;;;;;;;1.10;0.82;;;;;;;22.00;51.41;96976.59;10320825;28;20038;-29
2022/08/08 18:08:43;;;;;;;1.27;1.00;;;;;;;22.02;53.20;96985.06;10323013;28;20528;-30
2022/08/08 18:13:45;;;;;;;11.67;1.50;;;;;;;22.02;50.98;96987.59;10323330;28;20045;-29
2022/08/08 18:18:45;;;;;;;7.63;1.63;;;;;;;22.02;51.21;96992.72;10321651;28;20112;-30
2022/08/08 18:23:45;;;;;;;2.23;0.97;;;;;;;22.09;50.75;97004.53;10320722;28;20560;-30
2022/08/08 18:28:46;;;;;;;1.20;0.87;;;;;;;22.23;48.98;97009.50;10317416;28;20050;-30
2022/08/08 18:33:46;;;;;;;1.03;0.87;;;;;;;22.23;51.82;97012.06;10314759;28;20034;-29
2022/08/08 18:38:46;;;;;;;1.33;0.93;;;;;;;22.09;52.08;97012.19;10319945;28;20035;-32
2022/08/08 18:43:47;;;;;;;1.33;1.23;;;;;;;22.05;52.86;97020.72;10323799;28;20305;-31
2022/08/08 18:48:47;;;;;;;2.03;1.67;;;;;;;22.02;51.99;97023.31;10317587;28;20069;-32
2022/08/08 18:53:48;;;;;;;5.30;1.13;;;;;;;22.00;53.57;97026.72;10310870;28;20305;-30
2022/08/08 18:58:49;;;;;;;1.75;1.00;;;;;;;21.98;53.59;97036.94;10325338;28;20038;-30
2022/08/08 19:03:50;;;;;;;3.35;0.95;;;;;;;21.96;54.38;97051.41;10324024;28;20389;-30
2022/08/08 19:08:50;;;;;;;2.30;1.00;;;;;;;21.93;54.64;97060.78;10325672;28;20038;-30
2022/08/08 19:13:53;;;;;;;2.88;1.52;;;;;;;22.00;51.72;97078.56;10326573;28;20042;-30
2022/08/08 19:18:53;;;;;;;2.20;1.35;;;;;;;22.17;50.46;97081.84;10323584;28;20576;-30
2022/08/08 19:23:54;;;;;;;1.70;1.10;;;;;;;22.22;52.84;97094.53;10319289;28;20129;-30
2022/08/08 19:28:55;;;;;;;2.38;1.10;;;;;;;22.10;52.90;97100.59;10326179;28;20320;-30
2022/08/08 19:33:55;;;;;;;1.27;1.17;;;;;;;22.02;53.62;97102.34;10323597;28;20042;-30
2022/08/08 19:38:56;;;;;;;1.90;1.30;;;;;;;22.00;54.42;97109.19;10321939;28;20579;-30
2022/08/08 19:43:57;;;;;;;1.67;1.10;;;;;;;21.98;54.68;97115.97;10325282;28;20030;-30
2022/08/08 19:48:57;;;;;;;3.38;1.30;;;;;;;21.97;54.82;97129.56;10318579;28;20038;-30
2022/08/08 19:53:57;;;;;;;3.40;1.60;;;;;;;21.95;55.19;97126.19;10322000;28;20117;-31
2022/08/08 19:58:58;;;;;;;1.43;1.33;;;;;;;21.80;55.63;97118.66;10323119;28;20022;-30
2022/08/08 20:03:59;;;;;;;3.33;1.83;;;;;;;21.98;53.08;97131.25;10320776;28;20125;-30
2022/08/08 20:09:00;;;;;;;4.72;1.80;;;;;;;22.19;51.72;97131.13;10326418;28;20065;-29
2022/08/08 20:14:00;;;;;;;5.03;1.00;;;;;;;22.23;53.67;97131.94;10323253;28;20572;-30
2022/08/08 20:19:00;;;;;;;4.73;2.07;;;;;;;22.11;53.87;97132.03;10326502;28;20030;-30
2022/08/08 20:24:01;;;;;;;2.97;1.50;;;;;;;21.88;54.56;97113.53;10322718;28;20092;-30
2022/08/08 20:29:03;;;;;;;3.75;1.40;;;;;;;22.02;54.84;97132.09;10323151;28;20298;-30
2022/08/08 20:34:04;;;;;;;1.92;1.73;;;;;;;21.96;55.01;97125.34;10316373;28;20472;-31
2022/08/08 20:39:04;;;;;;;4.03;1.58;;;;;;;21.98;55.03;97128.72;10323160;28;20066;-31
2022/08/08 20:44:05;;;;;;;3.45;1.90;;;;;;;21.96;55.56;97127.88;10327152;28;20547;-30
2022/08/08 20:49:06;;;;;;;1.93;1.00;;;;;;;21.96;55.37;97127.03;10323586;28;20030;-30
2022/08/08 20:54:06;;;;;;;3.40;1.77;;;;;;;21.99;52.97;97138.06;10325271;28;20035;-30
2022/08/08 20:59:07;;;;;;;3.28;1.30;;;;;;;22.18;51.98;97136.22;10322104;28;20646;-30
2022/08/08 21:04:08;;;;;;;3.30;1.70;;;;;;;22.11;52.11;97132.88;10317932;28;20045;-30
2022/08/08 21:09:08;;;;;;;1.23;1.10;;;;;;;21.66;50.47;97138.28;10314417;28;20301;-30
2022/08/08 21:14:09;;;;;;;2.93;1.30;;;;;;;21.92;52.76;97140.66;10323855;28;20053;-29
2022/08/08 21:19:09;;;;;;;0.87;0.70;;;;;;;21.78;54.49;97138.22;10314327;28;20100;-30
2022/08/08 21:24:10;;;;;;;1.87;0.73;;;;;;;21.67;52.71;97145.09;10323555;28;20084;-30
2022/08/08 21:29:10;;;;;;;2.40;0.90;;;;;;;21.60;51.81;97153.59;10322823;28;20371;-30
2022/08/08 21:34:10;;;;;;;1.10;1.00;;;;;;;21.55;50.26;97152.75;10325201;28;20827;-30
2022/08/08 21:39:11;;;;;;;1.97;1.03;;;;;;;21.42;48.37;97152.81;10322408;28;20026;-30
2022/08/08 21:44:12;;;;;;;1.10;1.00;;;;;;;21.42;49.83;97148.59;10324861;28;20281;-31
2022/08/08 21:49:13;;;;;;;1.40;1.17;;;;;;;21.35;47.61;97144.38;10322559;28;20066;-30
2022/08/08 21:54:19;;;;;;;1.45;0.93;;;;;;;21.25;46.46;97155.47;10321573;28;20041;-30
2022/08/08 21:59:19;;;;;;;1.45;1.25;;;;;;;21.23;48.43;97154.59;10322484;28;20034;-30
2022/08/08 22:04:19;;;;;;;2.60;1.20;;;;;;;21.17;47.98;97151.22;10324726;28;20035;-29
2022/08/08 22:09:20;;;;;;;3.40;1.13;;;;;;;21.11;47.97;97146.16;10323503;28;20053;-30
2022/08/08 22:14:21;;;;;;;1.53;1.10;;;;;;;21.11;48.71;97156.34;10324306;28;20042;-29
2022/08/08 22:19:21;;;;;;;1.55;1.42;;;;;;;21.04;48.20;97149.59;10322101;28;20045;-30
2022/08/08 22:24:22;;;;;;;2.08;1.05;;;;;;;20.98;48.45;97154.69;10317993;28;20521;-31
2022/08/08 22:29:22;;;;;;;1.20;1.10;;;;;;;20.96;48.01;97157.25;10325006;28;20065;-30
2022/08/08 22:34:23;;;;;;;2.03;1.17;;;;;;;20.96;47.77;97151.31;10331440;28;20337;-29
2022/08/08 22:39:23;;;;;;;2.00;1.33;;;;;;;20.98;48.50;97152.16;10329042;28;20049;-30
2022/08/08 22:44:24;;;;;;;2.83;1.20;;;;;;;20.94;47.93;97151.31;10330509;28;20046;-30
2022/08/08 22:49:24;;;;;;;4.82;1.20;;;;;;;20.86;48.18;97155.56;10331151;28;20030;-30
2022/08/08 22:54:24;;;;;;;3.53;1.07;;;;;;;20.75;48.46;97152.19;10330213;28;20038;-30
2022/08/08 22:59:25;;;;;;;3.13;1.17;;;;;;;20.76;48.42;97151.34;10327258;28;20030;-31
2022/08/08 23:04:25;;;;;;;1.57;1.23;;;;;;;20.77;48.11;97158.13;10330976;28;20041;-33
2022/08/08 23:09:26;;;;;;;2.73;1.00;;;;;;;20.70;48.09;97146.25;10324571;28;20085;-31
2022/08/08 23:14:26;;;;;;;4.47;1.10;;;;;;;20.72;47.67;97157.25;10331995;28;20572;-30
2022/08/08 23:19:27;;;;;;;1.25;1.15;;;;;;;20.73;47.83;97156.41;10332031;28;20037;-31
2022/08/08 23:24:28;;;;;;;3.40;1.38;;;;;;;20.76;48.51;97153.88;10331257;28;20030;-30
2022/08/08 23:29:28;;;;;;;3.67;1.30;;;;;;;20.68;48.50;97160.69;10333369;28;20038;-30
2022/08/08 23:34:28;;;;;;;1.50;1.20;;;;;;;20.71;48.69;97154.75;10329230;28;20034;-30
2022/08/08 23:39:34;;;;;;;1.13;1.03;;;;;;;20.76;48.84;97150.47;10327834;28;20485;-29